sensor_id;sensor_type;location;lat;lon;timestamp;P1;durP1;ratioP1;P2;durP2;ratioP2
23506;SDS011;11930;53.076;18.250;2023-05-17T00:00:24;12.63;;;7.30;;
23506;SDS011;11930;53.076;18.250;2023-05-17T00:03:10;12.03;;;7.03;;
23506;SDS011;11930;53.076;18.250;2023-05-17T00:05:36;11.63;;;7.80;;
23506;SDS011;11930;53.076;18.250;2023-05-17T00:08:02;12.07;;;7.60;;
23506;SDS011;11930;53.076;18.250;2023-05-17T00:10:28;13.30;;;7.57;;
23506;SDS011;11930;53.076;18.250;2023-05-17T00:12:54;11.53;;;7.63;;
23506;SDS011;11930;53.076;18.250;2023-05-17T00:15:20;17.27;;;9.00;;
23506;SDS011;11930;53.076;18.250;2023-05-17T00:17:46;13.17;;;7.67;;
23506;SDS011;11930;53.076;18.250;2023-05-17T00:20:12;13.67;;;8.40;;
23506;SDS011;11930;53.076;18.250;2023-05-17T00:22:38;14.20;;;8.20;;
23506;SDS011;11930;53.076;18.250;2023-05-17T00:25:05;14.67;;;8.07;;
23506;SDS011;11930;53.076;18.250;2023-05-17T00:27:32;13.87;;;8.27;;
23506;SDS011;11930;53.076;18.250;2023-05-17T00:29:58;11.27;;;8.13;;
23506;SDS011;11930;53.076;18.250;2023-05-17T00:32:24;15.70;;;8.87;;
23506;SDS011;11930;53.076;18.250;2023-05-17T00:34:49;17.00;;;9.23;;
23506;SDS011;11930;53.076;18.250;2023-05-17T00:37:16;14.73;;;8.97;;
23506;SDS011;11930;53.076;18.250;2023-05-17T00:39:41;12.17;;;8.13;;
23506;SDS011;11930;53.076;18.250;2023-05-17T00:42:08;19.10;;;10.00;;
23506;SDS011;11930;53.076;18.250;2023-05-17T00:44:34;16.73;;;9.00;;
23506;SDS011;11930;53.076;18.250;2023-05-17T00:47:00;15.37;;;8.23;;
23506;SDS011;11930;53.076;18.250;2023-05-17T00:49:27;14.30;;;9.07;;
23506;SDS011;11930;53.076;18.250;2023-05-17T00:51:53;14.40;;;8.63;;
23506;SDS011;11930;53.076;18.250;2023-05-17T00:54:20;13.53;;;7.37;;
23506;SDS011;11930;53.076;18.250;2023-05-17T00:56:47;12.43;;;8.37;;
23506;SDS011;11930;53.076;18.250;2023-05-17T00:59:13;12.77;;;7.93;;
23506;SDS011;11930;53.076;18.250;2023-05-17T01:01:41;12.73;;;7.10;;
23506;SDS011;11930;53.076;18.250;2023-05-17T01:04:10;13.97;;;7.60;;
23506;SDS011;11930;53.076;18.250;2023-05-17T01:06:36;13.10;;;7.33;;
23506;SDS011;11930;53.076;18.250;2023-05-17T01:09:04;15.93;;;8.03;;
23506;SDS011;11930;53.076;18.250;2023-05-17T01:15:02;14.17;;;7.57;;
23506;SDS011;11930;53.076;18.250;2023-05-17T01:17:41;13.87;;;7.20;;
23506;SDS011;11930;53.076;18.250;2023-05-17T01:20:24;9.33;;;6.43;;
23506;SDS011;11930;53.076;18.250;2023-05-17T01:26:01;14.37;;;7.20;;
23506;SDS011;11930;53.076;18.250;2023-05-17T01:28:39;11.57;;;6.93;;
23506;SDS011;11930;53.076;18.250;2023-05-17T01:31:08;9.23;;;5.90;;
23506;SDS011;11930;53.076;18.250;2023-05-17T01:33:36;11.87;;;6.27;;
23506;SDS011;11930;53.076;18.250;2023-05-17T01:36:03;13.73;;;6.77;;
23506;SDS011;11930;53.076;18.250;2023-05-17T01:38:29;13.20;;;6.60;;
23506;SDS011;11930;53.076;18.250;2023-05-17T01:43:34;11.27;;;6.27;;
23506;SDS011;11930;53.076;18.250;2023-05-17T01:46:23;12.00;;;6.07;;
23506;SDS011;11930;53.076;18.250;2023-05-17T01:51:48;9.50;;;5.37;;
23506;SDS011;11930;53.076;18.250;2023-05-17T01:55:03;11.03;;;6.13;;
23506;SDS011;11930;53.076;18.250;2023-05-17T01:57:31;10.20;;;5.73;;
23506;SDS011;11930;53.076;18.250;2023-05-17T02:00:01;8.63;;;5.77;;
23506;SDS011;11930;53.076;18.250;2023-05-17T02:02:39;8.70;;;5.80;;
23506;SDS011;11930;53.076;18.250;2023-05-17T02:05:06;9.30;;;5.70;;
23506;SDS011;11930;53.076;18.250;2023-05-17T02:07:32;10.57;;;5.80;;
23506;SDS011;11930;53.076;18.250;2023-05-17T02:09:58;10.10;;;5.90;;
23506;SDS011;11930;53.076;18.250;2023-05-17T02:12:24;8.53;;;5.57;;
23506;SDS011;11930;53.076;18.250;2023-05-17T02:14:50;9.90;;;5.40;;
23506;SDS011;11930;53.076;18.250;2023-05-17T02:17:16;10.43;;;5.40;;
23506;SDS011;11930;53.076;18.250;2023-05-17T02:19:42;11.30;;;5.70;;
23506;SDS011;11930;53.076;18.250;2023-05-17T02:22:08;10.17;;;5.20;;
23506;SDS011;11930;53.076;18.250;2023-05-17T02:24:34;10.20;;;5.30;;
23506;SDS011;11930;53.076;18.250;2023-05-17T02:27:00;10.30;;;5.57;;
23506;SDS011;11930;53.076;18.250;2023-05-17T02:29:28;7.80;;;4.87;;
23506;SDS011;11930;53.076;18.250;2023-05-17T02:31:53;13.07;;;5.23;;
23506;SDS011;11930;53.076;18.250;2023-05-17T02:34:20;7.07;;;4.77;;
23506;SDS011;11930;53.076;18.250;2023-05-17T02:36:48;9.33;;;5.20;;
23506;SDS011;11930;53.076;18.250;2023-05-17T02:39:14;11.20;;;5.40;;
23506;SDS011;11930;53.076;18.250;2023-05-17T02:41:40;8.87;;;4.60;;
23506;SDS011;11930;53.076;18.250;2023-05-17T02:44:07;8.00;;;4.63;;
23506;SDS011;11930;53.076;18.250;2023-05-17T02:46:32;10.77;;;4.90;;
23506;SDS011;11930;53.076;18.250;2023-05-17T02:48:58;10.73;;;5.03;;
23506;SDS011;11930;53.076;18.250;2023-05-17T02:51:24;8.60;;;4.53;;
23506;SDS011;11930;53.076;18.250;2023-05-17T02:53:51;9.40;;;4.50;;
23506;SDS011;11930;53.076;18.250;2023-05-17T02:56:17;11.10;;;4.90;;
23506;SDS011;11930;53.076;18.250;2023-05-17T02:58:43;9.00;;;4.83;;
23506;SDS011;11930;53.076;18.250;2023-05-17T03:01:09;7.80;;;4.57;;
23506;SDS011;11930;53.076;18.250;2023-05-17T03:03:36;7.70;;;4.40;;
23506;SDS011;11930;53.076;18.250;2023-05-17T03:06:03;11.50;;;4.43;;
23506;SDS011;11930;53.076;18.250;2023-05-17T03:08:30;7.13;;;4.00;;
23506;SDS011;11930;53.076;18.250;2023-05-17T03:10:58;12.07;;;3.73;;
23506;SDS011;11930;53.076;18.250;2023-05-17T03:13:24;5.87;;;3.70;;
23506;SDS011;11930;53.076;18.250;2023-05-17T03:15:50;8.53;;;3.93;;
23506;SDS011;11930;53.076;18.250;2023-05-17T03:18:16;8.03;;;3.60;;
23506;SDS011;11930;53.076;18.250;2023-05-17T03:20:43;7.87;;;4.40;;
23506;SDS011;11930;53.076;18.250;2023-05-17T03:23:09;7.87;;;4.23;;
23506;SDS011;11930;53.076;18.250;2023-05-17T03:25:44;9.20;;;3.47;;
23506;SDS011;11930;53.076;18.250;2023-05-17T03:28:10;6.40;;;3.33;;
23506;SDS011;11930;53.076;18.250;2023-05-17T03:30:36;5.77;;;3.30;;
23506;SDS011;11930;53.076;18.250;2023-05-17T03:33:03;6.30;;;3.43;;
23506;SDS011;11930;53.076;18.250;2023-05-17T03:35:29;10.93;;;3.93;;
23506;SDS011;11930;53.076;18.250;2023-05-17T03:37:56;7.90;;;3.40;;
23506;SDS011;11930;53.076;18.250;2023-05-17T03:40:23;7.07;;;3.00;;
23506;SDS011;11930;53.076;18.250;2023-05-17T03:42:49;6.87;;;3.30;;
23506;SDS011;11930;53.076;18.250;2023-05-17T03:45:16;6.23;;;3.23;;
23506;SDS011;11930;53.076;18.250;2023-05-17T03:47:42;8.80;;;3.70;;
23506;SDS011;11930;53.076;18.250;2023-05-17T03:50:09;10.03;;;3.97;;
23506;SDS011;11930;53.076;18.250;2023-05-17T03:52:35;7.00;;;3.33;;
23506;SDS011;11930;53.076;18.250;2023-05-17T03:55:01;5.60;;;3.10;;
23506;SDS011;11930;53.076;18.250;2023-05-17T03:57:29;5.70;;;2.87;;
23506;SDS011;11930;53.076;18.250;2023-05-17T03:59:55;6.53;;;2.80;;
23506;SDS011;11930;53.076;18.250;2023-05-17T04:02:22;7.03;;;2.97;;
23506;SDS011;11930;53.076;18.250;2023-05-17T04:04:48;6.23;;;2.90;;
23506;SDS011;11930;53.076;18.250;2023-05-17T04:07:16;6.07;;;2.60;;
23506;SDS011;11930;53.076;18.250;2023-05-17T04:09:42;4.53;;;2.77;;
23506;SDS011;11930;53.076;18.250;2023-05-17T04:12:09;4.57;;;2.53;;
23506;SDS011;11930;53.076;18.250;2023-05-17T04:14:38;5.80;;;2.60;;
23506;SDS011;11930;53.076;18.250;2023-05-17T04:17:04;7.43;;;2.67;;
23506;SDS011;11930;53.076;18.250;2023-05-17T04:19:31;5.77;;;2.93;;
23506;SDS011;11930;53.076;18.250;2023-05-17T04:21:58;6.27;;;2.70;;
23506;SDS011;11930;53.076;18.250;2023-05-17T04:24:26;6.00;;;2.70;;
23506;SDS011;11930;53.076;18.250;2023-05-17T04:26:52;7.10;;;2.33;;
23506;SDS011;11930;53.076;18.250;2023-05-17T04:29:22;5.63;;;2.00;;
23506;SDS011;11930;53.076;18.250;2023-05-17T04:31:48;7.13;;;2.40;;
23506;SDS011;11930;53.076;18.250;2023-05-17T04:34:15;5.13;;;2.07;;
23506;SDS011;11930;53.076;18.250;2023-05-17T04:36:42;8.50;;;2.43;;
23506;SDS011;11930;53.076;18.250;2023-05-17T04:39:08;6.50;;;2.70;;
23506;SDS011;11930;53.076;18.250;2023-05-17T04:41:36;5.23;;;2.27;;
23506;SDS011;11930;53.076;18.250;2023-05-17T04:44:06;6.83;;;2.13;;
23506;SDS011;11930;53.076;18.250;2023-05-17T04:46:34;5.50;;;2.10;;
23506;SDS011;11930;53.076;18.250;2023-05-17T04:49:00;5.37;;;2.17;;
23506;SDS011;11930;53.076;18.250;2023-05-17T04:51:28;7.17;;;2.23;;
23506;SDS011;11930;53.076;18.250;2023-05-17T04:53:55;6.70;;;2.30;;
23506;SDS011;11930;53.076;18.250;2023-05-17T04:56:23;9.30;;;3.00;;
23506;SDS011;11930;53.076;18.250;2023-05-17T04:58:50;5.43;;;2.20;;
23506;SDS011;11930;53.076;18.250;2023-05-17T05:01:16;4.57;;;2.23;;
23506;SDS011;11930;53.076;18.250;2023-05-17T05:03:43;7.40;;;2.03;;
23506;SDS011;11930;53.076;18.250;2023-05-17T05:06:10;6.13;;;2.33;;
23506;SDS011;11930;53.076;18.250;2023-05-17T05:08:37;5.77;;;2.40;;
23506;SDS011;11930;53.076;18.250;2023-05-17T05:11:05;7.60;;;2.80;;
23506;SDS011;11930;53.076;18.250;2023-05-17T05:13:31;7.53;;;2.47;;
23506;SDS011;11930;53.076;18.250;2023-05-17T05:15:58;5.10;;;2.17;;
23506;SDS011;11930;53.076;18.250;2023-05-17T05:18:24;7.57;;;2.50;;
23506;SDS011;11930;53.076;18.250;2023-05-17T05:20:51;4.90;;;2.20;;
23506;SDS011;11930;53.076;18.250;2023-05-17T05:23:17;7.33;;;2.50;;
23506;SDS011;11930;53.076;18.250;2023-05-17T05:25:46;6.90;;;2.13;;
23506;SDS011;11930;53.076;18.250;2023-05-17T05:28:12;6.47;;;2.33;;
23506;SDS011;11930;53.076;18.250;2023-05-17T05:30:39;7.50;;;2.20;;
23506;SDS011;11930;53.076;18.250;2023-05-17T05:33:06;6.73;;;2.73;;
23506;SDS011;11930;53.076;18.250;2023-05-17T05:35:35;7.83;;;2.50;;
23506;SDS011;11930;53.076;18.250;2023-05-17T05:38:01;5.38;;;2.20;;
23506;SDS011;11930;53.076;18.250;2023-05-17T05:40:28;9.17;;;2.37;;
23506;SDS011;11930;53.076;18.250;2023-05-17T05:42:55;5.47;;;2.23;;
23506;SDS011;11930;53.076;18.250;2023-05-17T05:45:21;7.15;;;2.35;;
23506;SDS011;11930;53.076;18.250;2023-05-17T05:47:49;7.15;;;2.30;;
23506;SDS011;11930;53.076;18.250;2023-05-17T05:50:15;6.35;;;2.30;;
23506;SDS011;11930;53.076;18.250;2023-05-17T05:52:43;7.87;;;2.40;;
23506;SDS011;11930;53.076;18.250;2023-05-17T05:55:09;7.60;;;2.38;;
23506;SDS011;11930;53.076;18.250;2023-05-17T05:57:35;6.40;;;2.35;;
23506;SDS011;11930;53.076;18.250;2023-05-17T06:00:02;9.20;;;2.83;;
23506;SDS011;11930;53.076;18.250;2023-05-17T06:02:38;6.22;;;2.42;;
23506;SDS011;11930;53.076;18.250;2023-05-17T06:05:04;6.47;;;2.20;;
23506;SDS011;11930;53.076;18.250;2023-05-17T06:07:31;4.95;;;2.35;;
23506;SDS011;11930;53.076;18.250;2023-05-17T06:09:57;6.70;;;2.60;;
23506;SDS011;11930;53.076;18.250;2023-05-17T06:12:23;6.50;;;2.05;;
23506;SDS011;11930;53.076;18.250;2023-05-17T06:14:49;6.10;;;2.55;;
23506;SDS011;11930;53.076;18.250;2023-05-17T06:17:15;7.00;;;2.60;;
23506;SDS011;11930;53.076;18.250;2023-05-17T06:19:41;9.23;;;2.72;;
23506;SDS011;11930;53.076;18.250;2023-05-17T06:22:07;8.98;;;2.67;;
23506;SDS011;11930;53.076;18.250;2023-05-17T06:24:33;6.93;;;2.35;;
23506;SDS011;11930;53.076;18.250;2023-05-17T06:26:59;8.23;;;2.78;;
23506;SDS011;11930;53.076;18.250;2023-05-17T06:29:25;7.43;;;2.50;;
23506;SDS011;11930;53.076;18.250;2023-05-17T06:31:51;5.10;;;2.17;;
23506;SDS011;11930;53.076;18.250;2023-05-17T06:34:17;6.32;;;2.47;;
23506;SDS011;11930;53.076;18.250;2023-05-17T06:36:43;7.13;;;2.80;;
23506;SDS011;11930;53.076;18.250;2023-05-17T06:39:09;7.32;;;3.40;;
23506;SDS011;11930;53.076;18.250;2023-05-17T06:41:35;5.88;;;2.55;;
23506;SDS011;11930;53.076;18.250;2023-05-17T06:44:01;7.60;;;2.75;;
23506;SDS011;11930;53.076;18.250;2023-05-17T06:46:27;7.20;;;2.75;;
23506;SDS011;11930;53.076;18.250;2023-05-17T06:48:53;10.18;;;2.72;;
23506;SDS011;11930;53.076;18.250;2023-05-17T06:51:19;6.13;;;2.70;;
23506;SDS011;11930;53.076;18.250;2023-05-17T06:53:45;9.35;;;3.28;;
23506;SDS011;11930;53.076;18.250;2023-05-17T06:56:11;8.25;;;2.83;;
23506;SDS011;11930;53.076;18.250;2023-05-17T06:58:39;7.55;;;2.92;;
23506;SDS011;11930;53.076;18.250;2023-05-17T07:01:04;5.32;;;2.33;;
23506;SDS011;11930;53.076;18.250;2023-05-17T07:03:33;5.68;;;2.55;;
23506;SDS011;11930;53.076;18.250;2023-05-17T07:06:00;6.85;;;2.88;;
23506;SDS011;11930;53.076;18.250;2023-05-17T07:08:26;9.05;;;2.90;;
23506;SDS011;11930;53.076;18.250;2023-05-17T07:10:52;6.97;;;2.85;;
23506;SDS011;11930;53.076;18.250;2023-05-17T07:13:18;5.85;;;2.63;;
23506;SDS011;11930;53.076;18.250;2023-05-17T07:15:44;9.10;;;3.20;;
23506;SDS011;11930;53.076;18.250;2023-05-17T07:18:11;8.32;;;3.17;;
23506;SDS011;11930;53.076;18.250;2023-05-17T07:20:37;9.63;;;4.85;;
23506;SDS011;11930;53.076;18.250;2023-05-17T07:23:03;17.38;;;5.78;;
23506;SDS011;11930;53.076;18.250;2023-05-17T07:25:29;11.52;;;4.20;;
23506;SDS011;11930;53.076;18.250;2023-05-17T07:27:56;7.70;;;3.15;;
23506;SDS011;11930;53.076;18.250;2023-05-17T07:30:22;8.27;;;2.78;;
23506;SDS011;11930;53.076;18.250;2023-05-17T07:32:48;6.60;;;2.83;;
23506;SDS011;11930;53.076;18.250;2023-05-17T07:35:14;7.22;;;2.80;;
23506;SDS011;11930;53.076;18.250;2023-05-17T07:37:40;7.00;;;2.85;;
23506;SDS011;11930;53.076;18.250;2023-05-17T07:40:06;7.97;;;3.08;;
23506;SDS011;11930;53.076;18.250;2023-05-17T07:42:33;7.07;;;2.47;;
23506;SDS011;11930;53.076;18.250;2023-05-17T07:44:59;7.40;;;2.90;;
23506;SDS011;11930;53.076;18.250;2023-05-17T07:47:25;5.65;;;2.65;;
23506;SDS011;11930;53.076;18.250;2023-05-17T07:49:51;8.30;;;3.40;;
23506;SDS011;11930;53.076;18.250;2023-05-17T07:52:17;7.70;;;4.10;;
23506;SDS011;11930;53.076;18.250;2023-05-17T07:54:43;8.15;;;3.70;;
23506;SDS011;11930;53.076;18.250;2023-05-17T07:57:09;6.18;;;2.95;;
23506;SDS011;11930;53.076;18.250;2023-05-17T07:59:35;18.88;;;10.98;;
23506;SDS011;11930;53.076;18.250;2023-05-17T08:02:01;10.25;;;4.93;;
23506;SDS011;11930;53.076;18.250;2023-05-17T08:04:27;7.93;;;3.03;;
23506;SDS011;11930;53.076;18.250;2023-05-17T08:06:54;7.80;;;3.03;;
23506;SDS011;11930;53.076;18.250;2023-05-17T08:09:20;8.70;;;3.30;;
23506;SDS011;11930;53.076;18.250;2023-05-17T08:11:46;7.13;;;3.03;;
23506;SDS011;11930;53.076;18.250;2023-05-17T08:14:15;7.60;;;3.17;;
23506;SDS011;11930;53.076;18.250;2023-05-17T08:16:42;10.35;;;3.20;;
23506;SDS011;11930;53.076;18.250;2023-05-17T08:19:10;7.25;;;3.00;;
23506;SDS011;11930;53.076;18.250;2023-05-17T08:21:41;10.75;;;2.97;;
23506;SDS011;11930;53.076;18.250;2023-05-17T08:24:08;10.82;;;3.50;;
23506;SDS011;11930;53.076;18.250;2023-05-17T08:26:34;11.77;;;3.50;;
23506;SDS011;11930;53.076;18.250;2023-05-17T08:29:03;8.15;;;2.70;;
23506;SDS011;11930;53.076;18.250;2023-05-17T08:31:29;5.82;;;3.00;;
23506;SDS011;11930;53.076;18.250;2023-05-17T08:33:56;5.15;;;2.45;;
23506;SDS011;11930;53.076;18.250;2023-05-17T08:36:22;7.47;;;2.83;;
23506;SDS011;11930;53.076;18.250;2023-05-17T08:38:48;6.88;;;2.75;;
23506;SDS011;11930;53.076;18.250;2023-05-17T08:41:14;7.75;;;2.65;;
23506;SDS011;11930;53.076;18.250;2023-05-17T08:43:40;14.05;;;3.95;;
23506;SDS011;11930;53.076;18.250;2023-05-17T08:46:08;9.05;;;3.20;;
23506;SDS011;11930;53.076;18.250;2023-05-17T08:48:35;6.25;;;3.10;;
23506;SDS011;11930;53.076;18.250;2023-05-17T08:51:06;6.47;;;2.95;;
23506;SDS011;11930;53.076;18.250;2023-05-17T08:53:35;9.48;;;3.40;;
23506;SDS011;11930;53.076;18.250;2023-05-17T08:56:02;4.82;;;2.70;;
23506;SDS011;11930;53.076;18.250;2023-05-17T08:58:32;6.35;;;2.80;;
23506;SDS011;11930;53.076;18.250;2023-05-17T09:01:01;6.55;;;2.50;;
23506;SDS011;11930;53.076;18.250;2023-05-17T09:03:28;6.95;;;2.80;;
23506;SDS011;11930;53.076;18.250;2023-05-17T09:05:57;6.53;;;2.63;;
23506;SDS011;11930;53.076;18.250;2023-05-17T09:08:24;6.75;;;2.80;;
23506;SDS011;11930;53.076;18.250;2023-05-17T09:10:51;10.02;;;3.00;;
23506;SDS011;11930;53.076;18.250;2023-05-17T09:13:17;7.90;;;3.00;;
23506;SDS011;11930;53.076;18.250;2023-05-17T09:15:44;6.75;;;2.60;;
23506;SDS011;11930;53.076;18.250;2023-05-17T09:18:12;11.18;;;3.53;;
23506;SDS011;11930;53.076;18.250;2023-05-17T09:20:38;7.72;;;2.60;;
23506;SDS011;11930;53.076;18.250;2023-05-17T09:23:06;7.78;;;2.60;;
23506;SDS011;11930;53.076;18.250;2023-05-17T09:25:34;7.35;;;2.60;;
23506;SDS011;11930;53.076;18.250;2023-05-17T09:28:02;8.10;;;3.13;;
23506;SDS011;11930;53.076;18.250;2023-05-17T09:30:30;18.42;;;10.15;;
23506;SDS011;11930;53.076;18.250;2023-05-17T09:32:58;7.53;;;3.75;;
23506;SDS011;11930;53.076;18.250;2023-05-17T09:35:31;8.00;;;3.08;;
23506;SDS011;11930;53.076;18.250;2023-05-17T09:38:05;8.68;;;2.55;;
23506;SDS011;11930;53.076;18.250;2023-05-17T09:40:32;8.05;;;2.65;;
23506;SDS011;11930;53.076;18.250;2023-05-17T09:42:58;8.38;;;2.72;;
23506;SDS011;11930;53.076;18.250;2023-05-17T09:45:25;5.60;;;2.65;;
23506;SDS011;11930;53.076;18.250;2023-05-17T09:47:51;8.18;;;2.97;;
23506;SDS011;11930;53.076;18.250;2023-05-17T09:50:17;5.57;;;2.30;;
23506;SDS011;11930;53.076;18.250;2023-05-17T09:52:44;6.97;;;2.55;;
23506;SDS011;11930;53.076;18.250;2023-05-17T09:55:11;9.05;;;3.25;;
23506;SDS011;11930;53.076;18.250;2023-05-17T09:57:38;7.63;;;2.40;;
23506;SDS011;11930;53.076;18.250;2023-05-17T10:00:05;7.65;;;2.70;;
23506;SDS011;11930;53.076;18.250;2023-05-17T10:02:38;6.28;;;2.80;;
23506;SDS011;11930;53.076;18.250;2023-05-17T10:05:09;5.30;;;2.63;;
23506;SDS011;11930;53.076;18.250;2023-05-17T10:07:36;7.43;;;2.92;;
23506;SDS011;11930;53.076;18.250;2023-05-17T10:10:04;5.18;;;2.65;;
23506;SDS011;11930;53.076;18.250;2023-05-17T10:12:31;6.68;;;2.80;;
23506;SDS011;11930;53.076;18.250;2023-05-17T10:15:00;7.70;;;2.70;;
23506;SDS011;11930;53.076;18.250;2023-05-17T10:17:27;7.28;;;2.80;;
23506;SDS011;11930;53.076;18.250;2023-05-17T10:19:54;8.07;;;2.90;;
23506;SDS011;11930;53.076;18.250;2023-05-17T10:22:21;9.57;;;3.42;;
23506;SDS011;11930;53.076;18.250;2023-05-17T10:24:48;7.05;;;2.78;;
23506;SDS011;11930;53.076;18.250;2023-05-17T10:27:18;5.97;;;2.70;;
23506;SDS011;11930;53.076;18.250;2023-05-17T10:29:46;6.82;;;2.78;;
23506;SDS011;11930;53.076;18.250;2023-05-17T10:32:13;7.53;;;2.60;;
23506;SDS011;11930;53.076;18.250;2023-05-17T10:34:41;6.50;;;2.80;;
23506;SDS011;11930;53.076;18.250;2023-05-17T10:37:07;4.22;;;2.20;;
23506;SDS011;11930;53.076;18.250;2023-05-17T10:39:35;11.90;;;4.63;;
23506;SDS011;11930;53.076;18.250;2023-05-17T10:42:03;8.73;;;3.38;;
23506;SDS011;11930;53.076;18.250;2023-05-17T10:44:33;4.45;;;2.88;;
23506;SDS011;11930;53.076;18.250;2023-05-17T10:47:02;7.80;;;3.00;;
23506;SDS011;11930;53.076;18.250;2023-05-17T10:49:29;6.13;;;2.30;;
23506;SDS011;11930;53.076;18.250;2023-05-17T10:51:57;5.75;;;2.30;;
23506;SDS011;11930;53.076;18.250;2023-05-17T10:54:33;7.18;;;2.85;;
23506;SDS011;11930;53.076;18.250;2023-05-17T10:57:04;6.47;;;2.47;;
23506;SDS011;11930;53.076;18.250;2023-05-17T10:59:31;6.55;;;2.42;;
23506;SDS011;11930;53.076;18.250;2023-05-17T11:02:04;8.02;;;2.50;;
23506;SDS011;11930;53.076;18.250;2023-05-17T11:04:36;7.35;;;2.70;;
23506;SDS011;11930;53.076;18.250;2023-05-17T11:09:48;6.93;;;2.65;;
23506;SDS011;11930;53.076;18.250;2023-05-17T11:12:39;9.55;;;3.03;;
23506;SDS011;11930;53.076;18.250;2023-05-17T11:15:11;7.70;;;2.78;;
23506;SDS011;11930;53.076;18.250;2023-05-17T11:22:57;9.68;;;5.25;;
23506;SDS011;11930;53.076;18.250;2023-05-17T11:25:27;6.95;;;3.65;;
23506;SDS011;11930;53.076;18.250;2023-05-17T11:27:55;6.57;;;3.05;;
23506;SDS011;11930;53.076;18.250;2023-05-17T11:30:26;9.70;;;3.50;;
23506;SDS011;11930;53.076;18.250;2023-05-17T11:32:57;6.90;;;2.63;;
23506;SDS011;11930;53.076;18.250;2023-05-17T11:35:34;7.25;;;3.08;;
23506;SDS011;11930;53.076;18.250;2023-05-17T11:38:17;5.78;;;2.53;;
23506;SDS011;11930;53.076;18.250;2023-05-17T11:40:46;7.03;;;2.50;;
23506;SDS011;11930;53.076;18.250;2023-05-17T11:43:17;6.15;;;2.88;;
23506;SDS011;11930;53.076;18.250;2023-05-17T11:45:49;7.72;;;2.63;;
23506;SDS011;11930;53.076;18.250;2023-05-17T11:48:18;7.03;;;2.28;;
23506;SDS011;11930;53.076;18.250;2023-05-17T11:50:46;5.55;;;2.50;;
23506;SDS011;11930;53.076;18.250;2023-05-17T11:53:14;8.10;;;2.75;;
23506;SDS011;11930;53.076;18.250;2023-05-17T11:55:42;6.18;;;2.65;;
23506;SDS011;11930;53.076;18.250;2023-05-17T11:58:10;6.05;;;2.38;;
23506;SDS011;11930;53.076;18.250;2023-05-17T12:00:37;5.28;;;2.50;;
23506;SDS011;11930;53.076;18.250;2023-05-17T12:03:15;7.43;;;3.33;;
23506;SDS011;11930;53.076;18.250;2023-05-17T12:05:41;8.00;;;2.70;;
23506;SDS011;11930;53.076;18.250;2023-05-17T12:08:08;6.47;;;2.58;;
23506;SDS011;11930;53.076;18.250;2023-05-17T12:10:34;10.43;;;2.90;;
23506;SDS011;11930;53.076;18.250;2023-05-17T12:13:01;7.00;;;3.15;;
23506;SDS011;11930;53.076;18.250;2023-05-17T12:15:28;6.97;;;2.75;;
23506;SDS011;11930;53.076;18.250;2023-05-17T12:17:56;9.30;;;2.92;;
23506;SDS011;11930;53.076;18.250;2023-05-17T12:20:22;6.38;;;2.50;;
23506;SDS011;11930;53.076;18.250;2023-05-17T12:22:54;7.40;;;2.60;;
23506;SDS011;11930;53.076;18.250;2023-05-17T12:25:21;5.47;;;2.53;;
23506;SDS011;11930;53.076;18.250;2023-05-17T12:27:50;9.05;;;2.63;;
23506;SDS011;11930;53.076;18.250;2023-05-17T12:30:16;8.30;;;2.67;;
23506;SDS011;11930;53.076;18.250;2023-05-17T12:32:43;4.95;;;2.40;;
23506;SDS011;11930;53.076;18.250;2023-05-17T12:35:10;8.18;;;2.60;;
23506;SDS011;11930;53.076;18.250;2023-05-17T12:37:36;7.43;;;2.20;;
23506;SDS011;11930;53.076;18.250;2023-05-17T12:40:03;7.75;;;2.15;;
23506;SDS011;11930;53.076;18.250;2023-05-17T12:42:30;5.93;;;2.08;;
23506;SDS011;11930;53.076;18.250;2023-05-17T12:44:59;8.35;;;2.70;;
23506;SDS011;11930;53.076;18.250;2023-05-17T12:47:31;7.22;;;2.60;;
23506;SDS011;11930;53.076;18.250;2023-05-17T12:49:59;7.57;;;2.53;;
23506;SDS011;11930;53.076;18.250;2023-05-17T12:52:33;5.03;;;2.35;;
23506;SDS011;11930;53.076;18.250;2023-05-17T12:55:01;6.88;;;2.00;;
23506;SDS011;11930;53.076;18.250;2023-05-17T12:57:29;9.02;;;2.53;;
23506;SDS011;11930;53.076;18.250;2023-05-17T12:59:55;7.80;;;2.10;;
23506;SDS011;11930;53.076;18.250;2023-05-17T13:02:21;4.93;;;2.22;;
23506;SDS011;11930;53.076;18.250;2023-05-17T13:04:48;7.45;;;2.45;;
23506;SDS011;11930;53.076;18.250;2023-05-17T13:07:21;6.43;;;2.53;;
23506;SDS011;11930;53.076;18.250;2023-05-17T13:09:48;5.65;;;2.20;;
23506;SDS011;11930;53.076;18.250;2023-05-17T13:12:21;4.10;;;2.45;;
23506;SDS011;11930;53.076;18.250;2023-05-17T13:14:49;5.55;;;2.17;;
23506;SDS011;11930;53.076;18.250;2023-05-17T13:17:18;7.18;;;2.33;;
23506;SDS011;11930;53.076;18.250;2023-05-17T13:19:49;8.73;;;1.98;;
23506;SDS011;11930;53.076;18.250;2023-05-17T13:22:16;7.47;;;2.42;;
23506;SDS011;11930;53.076;18.250;2023-05-17T13:24:42;7.03;;;2.20;;
23506;SDS011;11930;53.076;18.250;2023-05-17T13:27:10;6.97;;;2.53;;
23506;SDS011;11930;53.076;18.250;2023-05-17T13:29:38;6.13;;;2.90;;
23506;SDS011;11930;53.076;18.250;2023-05-17T13:32:06;9.18;;;4.20;;
23506;SDS011;11930;53.076;18.250;2023-05-17T13:34:34;5.70;;;1.88;;
23506;SDS011;11930;53.076;18.250;2023-05-17T13:37:00;5.35;;;1.55;;
23506;SDS011;11930;53.076;18.250;2023-05-17T13:39:26;6.07;;;1.33;;
23506;SDS011;11930;53.076;18.250;2023-05-17T13:41:52;4.88;;;1.60;;
23506;SDS011;11930;53.076;18.250;2023-05-17T13:44:18;8.10;;;1.77;;
23506;SDS011;11930;53.076;18.250;2023-05-17T13:46:44;8.95;;;4.80;;
23506;SDS011;11930;53.076;18.250;2023-05-17T13:49:10;18.88;;;10.32;;
23506;SDS011;11930;53.076;18.250;2023-05-17T13:51:37;5.13;;;1.95;;
23506;SDS011;11930;53.076;18.250;2023-05-17T13:54:04;4.32;;;1.60;;
23506;SDS011;11930;53.076;18.250;2023-05-17T13:56:32;10.10;;;3.55;;
23506;SDS011;11930;53.076;18.250;2023-05-17T13:58:58;26.02;;;15.40;;
23506;SDS011;11930;53.076;18.250;2023-05-17T14:01:24;8.00;;;3.78;;
23506;SDS011;11930;53.076;18.250;2023-05-17T14:03:50;8.23;;;1.70;;
23506;SDS011;11930;53.076;18.250;2023-05-17T14:06:16;6.05;;;1.42;;
23506;SDS011;11930;53.076;18.250;2023-05-17T14:08:42;8.00;;;2.15;;
23506;SDS011;11930;53.076;18.250;2023-05-17T14:11:10;7.00;;;1.50;;
23506;SDS011;11930;53.076;18.250;2023-05-17T14:13:36;5.93;;;1.40;;
23506;SDS011;11930;53.076;18.250;2023-05-17T14:16:03;9.35;;;1.77;;
23506;SDS011;11930;53.076;18.250;2023-05-17T14:18:29;5.55;;;1.90;;
23506;SDS011;11930;53.076;18.250;2023-05-17T14:20:57;4.70;;;1.33;;
23506;SDS011;11930;53.076;18.250;2023-05-17T14:23:23;6.45;;;1.80;;
23506;SDS011;11930;53.076;18.250;2023-05-17T14:25:49;7.38;;;1.60;;
23506;SDS011;11930;53.076;18.250;2023-05-17T14:28:15;8.18;;;1.77;;
23506;SDS011;11930;53.076;18.250;2023-05-17T14:30:42;4.25;;;1.80;;
23506;SDS011;11930;53.076;18.250;2023-05-17T14:33:08;3.90;;;1.35;;
23506;SDS011;11930;53.076;18.250;2023-05-17T14:35:35;6.93;;;1.80;;
23506;SDS011;11930;53.076;18.250;2023-05-17T14:38:01;7.90;;;1.80;;
23506;SDS011;11930;53.076;18.250;2023-05-17T14:40:27;8.18;;;2.10;;
23506;SDS011;11930;53.076;18.250;2023-05-17T14:42:53;6.68;;;1.48;;
23506;SDS011;11930;53.076;18.250;2023-05-17T14:45:20;9.13;;;2.15;;
23506;SDS011;11930;53.076;18.250;2023-05-17T14:47:46;4.78;;;1.70;;
23506;SDS011;11930;53.076;18.250;2023-05-17T14:50:12;5.75;;;1.60;;
23506;SDS011;11930;53.076;18.250;2023-05-17T14:52:38;6.13;;;1.70;;